Redmond, Oregon
Current Conditions -  °F | °C
As of 10:56 AM on Thursday 30 Oct 2014 (Local Time) from KRDM Reporting Station
Overcast Overcast  
Wind Chill: 11°   Ceiling: 11000
Heat Index: 11°   Visibility: 8mi
Dew Point:   Wind: 0mph
Humidity: 92%   Direction: NA
Pressure: 29.99"   Gusts: NA
Location:  44.27°N, 121.17°W
Report Text: KRDM 301756Z 00000KT 8SM OVC110 11/09 A2999 RMK AO2 SLP152 60001 T01060094 10106 20072 58010
Loading
Personal Weather Stations






























Interactive Weather Map
Tropical Storm Tracking
New forecast layout! Learn more

10-Day Weather Forecast

Advertisements
Track Severe Weather on mobile